Time;durP1;ratioP1;P1;durP2;ratioP2;P2;SDS_P1;SDS_P2;PMS_P1;PMS_P2;Temp;Humidity;BMP_temperature;BMP_pressure;BME280_temperature;BME280_humidity;BME280_pressure;Samples;Min_cycle;Max_cycle;Signal;HPM_P1;HPM_P2
2024/02/21 00:02:07;;;;;;;55.40;36.80;;;8.90;91.50;;;;;;5115952;28;20278;-87
2024/02/21 00:04:32;;;;;;;53.97;37.10;;;9.00;91.60;;;;;;5114360;28;20645;-87
2024/02/21 00:06:59;;;;;;;52.33;35.70;;;9.00;91.60;;;;;;5116019;28;20197;-87
2024/02/21 00:09:24;;;;;;;59.03;38.57;;;8.90;91.70;;;;;;5116067;28;20209;-87
2024/02/21 00:11:50;;;;;;;54.40;38.47;;;8.90;91.70;;;;;;5115767;28;20254;-87
2024/02/21 00:14:16;;;;;;;56.67;32.47;;;8.90;91.70;;;;;;5115736;28;20252;-87
2024/02/21 00:16:41;;;;;;;52.27;37.40;;;8.90;91.80;;;;;;5114940;28;20228;-88
2024/02/21 00:19:07;;;;;;;44.57;37.73;;;9.00;91.70;;;;;;5115786;28;20683;-87
2024/02/21 00:21:32;;;;;;;50.90;34.80;;;9.00;91.70;;;;;;5115883;28;20250;-87
2024/02/21 00:23:58;;;;;;;43.33;34.83;;;8.90;91.80;;;;;;5114258;28;20205;-88
2024/02/21 00:26:23;;;;;;;56.20;36.27;;;9.00;91.80;;;;;;5115425;28;20239;-89
2024/02/21 00:28:49;;;;;;;47.67;34.90;;;8.90;91.80;;;;;;5114255;28;20186;-87
2024/02/21 00:31:14;;;;;;;75.13;38.23;;;9.00;91.90;;;;;;5114289;28;20177;-87
2024/02/21 00:33:40;;;;;;;55.03;40.10;;;9.00;91.90;;;;;;5114024;28;20178;-87
2024/02/21 00:36:05;;;;;;;48.43;31.90;;;9.00;92.00;;;;;;5113977;28;20275;-87
2024/02/21 00:38:31;;;;;;;44.03;26.87;;;9.00;92.00;;;;;;5115122;28;20241;-87
2024/02/21 00:40:56;;;;;;;43.17;27.93;;;9.00;92.00;;;;;;5115213;28;20541;-88
2024/02/21 00:43:23;;;;;;;43.23;27.27;;;9.00;92.00;;;;;;5113889;28;20178;-87
2024/02/21 00:45:49;;;;;;;49.30;29.43;;;9.10;92.00;;;;;;5114962;28;20198;-88
2024/02/21 00:48:15;;;;;;;52.17;30.30;;;9.00;91.90;;;;;;5114940;27;20182;-87
2024/02/21 00:50:40;;;;;;;42.17;27.87;;;9.00;92.00;;;;;;5115284;28;20181;-87
2024/02/21 00:53:06;;;;;;;41.60;24.67;;;9.00;92.00;;;;;;5113730;28;20605;-87
2024/02/21 00:55:31;;;;;;;48.07;28.73;;;9.10;91.90;;;;;;5113756;28;20177;-87
2024/02/21 00:57:57;;;;;;;42.57;27.37;;;9.10;91.90;;;;;;5113613;28;20202;-87
2024/02/21 01:00:22;;;;;;;47.07;28.60;;;9.10;91.90;;;;;;5113553;28;20178;-87
2024/02/21 01:02:48;;;;;;;45.03;30.77;;;9.00;92.00;;;;;;5114772;28;20272;-88
2024/02/21 01:05:14;;;;;;;46.07;28.73;;;9.10;92.10;;;;;;5115221;28;20568;-87
2024/02/21 01:07:39;;;;;;;43.63;28.30;;;9.00;92.20;;;;;;5114615;28;20185;-87
2024/02/21 01:10:06;;;;;;;50.97;29.43;;;9.10;92.30;;;;;;5114568;28;20537;-88
2024/02/21 01:12:31;;;;;;;45.43;29.33;;;9.10;92.30;;;;;;5113376;28;20178;-87
2024/02/21 01:14:57;;;;;;;48.07;26.83;;;9.10;92.30;;;;;;5113936;28;20169;-87
2024/02/21 01:17:22;;;;;;;44.90;26.40;;;9.00;92.50;;;;;;5113195;28;20185;-87
2024/02/21 01:19:48;;;;;;;46.70;28.87;;;9.00;92.60;;;;;;5113180;28;20170;-87
2024/02/21 01:22:14;;;;;;;46.07;28.17;;;9.00;92.60;;;;;;5114489;28;20252;-87
2024/02/21 01:24:40;;;;;;;54.47;29.43;;;9.10;92.60;;;;;;5113087;28;20174;-87
2024/02/21 01:27:05;;;;;;;44.60;32.03;;;9.10;92.70;;;;;;5112852;28;20210;-87
2024/02/21 01:29:31;;;;;;;50.97;33.63;;;9.10;92.80;;;;;;5114038;28;20197;-87
2024/02/21 01:31:56;;;;;;;49.10;33.47;;;9.00;92.80;;;;;;5113350;28;20260;-87
2024/02/21 01:34:22;;;;;;;51.63;34.10;;;9.00;93.00;;;;;;5113148;28;20219;-87
2024/02/21 01:36:47;;;;;;;56.23;34.43;;;9.00;93.20;;;;;;5112990;28;20189;-88
2024/02/21 01:39:13;;;;;;;45.43;30.93;;;8.90;93.40;;;;;;5112960;28;20322;-87
2024/02/21 01:41:39;;;;;;;58.63;35.50;;;8.90;93.70;;;;;;5112952;28;20173;-87
2024/02/21 01:44:04;;;;;;;51.77;34.13;;;8.80;93.80;;;;;;5114400;28;20182;-87
2024/02/21 01:46:30;;;;;;;50.43;34.70;;;8.80;94.10;;;;;;5114056;28;20277;-87
2024/02/21 01:48:57;;;;;;;52.13;33.67;;;8.80;94.30;;;;;;5112711;28;20190;-87
2024/02/21 01:51:24;;;;;;;46.00;31.70;;;8.80;94.40;;;;;;5112856;28;20170;-87
2024/02/21 01:53:51;;;;;;;34.40;23.20;;;8.80;94.60;;;;;;5114304;28;20174;-87
2024/02/21 01:56:17;;;;;;;44.57;30.80;;;8.70;94.80;;;;;;5112865;28;20189;-87
2024/02/21 01:58:43;;;;;;;53.77;33.83;;;8.70;95.00;;;;;;5113817;28;20573;-87
2024/02/21 02:01:10;;;;;;;57.83;30.77;;;8.70;95.10;;;;;;5112804;28;20189;-87
2024/02/21 02:03:36;;;;;;;42.87;28.43;;;8.70;95.20;;;;;;5113943;28;20178;-87
2024/02/21 02:06:02;;;;;;;44.17;28.97;;;8.70;95.20;;;;;;5112454;28;20216;-87
2024/02/21 02:08:28;;;;;;;48.93;29.93;;;8.70;95.20;;;;;;5113696;27;20246;-86
2024/02/21 02:10:53;;;;;;;48.43;28.03;;;8.70;95.10;;;;;;5112446;28;20253;-87
2024/02/21 02:13:19;;;;;;;54.60;31.37;;;8.70;95.00;;;;;;5112670;28;20680;-87
2024/02/21 02:15:49;;;;;;;55.97;35.23;;;8.70;94.90;;;;;;5114104;28;20183;-87
2024/02/21 02:18:15;;;;;;;51.00;32.67;;;8.60;94.90;;;;;;5114050;28;20200;-86
2024/02/21 02:20:41;;;;;;;63.47;34.40;;;8.70;94.90;;;;;;5113898;28;20206;-88
2024/02/21 02:23:08;;;;;;;55.17;35.00;;;8.70;94.80;;;;;;5112680;28;20243;-87
2024/02/21 02:25:34;;;;;;;49.90;33.57;;;8.70;94.70;;;;;;5112633;28;20205;-87
2024/02/21 02:28:00;;;;;;;60.63;36.87;;;8.70;94.70;;;;;;5116283;28;20269;-87
2024/02/21 02:30:25;;;;;;;59.63;34.43;;;8.70;94.70;;;;;;5116549;28;20680;-88
2024/02/21 02:32:51;;;;;;;59.40;34.00;;;8.80;94.60;;;;;;5117924;28;20646;-87
2024/02/21 02:35:16;;;;;;;55.97;36.17;;;8.80;94.50;;;;;;5116530;28;20184;-87
2024/02/21 02:37:49;;;;;;;68.23;38.33;;;8.80;94.40;;;;;;5117562;28;20193;-87
2024/02/21 02:40:15;;;;;;;60.10;37.03;;;8.80;94.40;;;;;;5117773;28;20271;-87
2024/02/21 02:42:40;;;;;;;60.20;34.93;;;8.80;94.30;;;;;;5117375;28;20576;-87
2024/02/21 02:45:06;;;;;;;51.33;36.30;;;8.80;94.30;;;;;;5117326;28;20201;-87
2024/02/21 02:47:34;;;;;;;56.93;38.60;;;8.90;94.10;;;;;;5117383;28;20166;-87
2024/02/21 02:50:00;;;;;;;69.20;40.10;;;8.80;94.00;;;;;;5116368;28;20185;-87
2024/02/21 02:52:25;;;;;;;59.53;37.00;;;8.80;93.90;;;;;;5116103;28;20174;-86
2024/02/21 02:54:51;;;;;;;57.63;36.37;;;8.80;93.90;;;;;;5116266;28;20174;-87
2024/02/21 02:57:17;;;;;;;57.97;36.37;;;8.80;93.90;;;;;;5117140;28;20170;-88
2024/02/21 02:59:50;;;;;;;51.47;37.50;;;8.90;93.80;;;;;;5115832;28;20174;-88
2024/02/21 03:02:17;;;;;;;55.23;37.87;;;8.90;93.70;;;;;;5117245;28;20150;-88
2024/02/21 03:04:43;;;;;;;46.40;33.97;;;8.90;93.60;;;;;;5115856;28;20642;-87
2024/02/21 03:07:08;;;;;;;40.57;31.37;;;8.90;93.50;;;;;;5115914;28;20252;-87
2024/02/21 03:09:34;;;;;;;40.53;30.30;;;9.00;93.30;;;;;;5117009;28;20221;-87
2024/02/21 03:12:02;;;;;;;44.10;33.60;;;9.00;93.10;;;;;;5115906;28;20177;-88
2024/02/21 03:14:31;;;;;;;44.17;29.87;;;9.10;93.00;;;;;;5117164;28;20166;-87
2024/02/21 03:16:58;;;;;;;46.63;33.97;;;9.10;92.90;;;;;;5116903;28;20185;-87
2024/02/21 03:19:24;;;;;;;39.80;31.70;;;9.20;92.80;;;;;;5116893;28;20194;-87
2024/02/21 03:21:50;;;;;;;47.53;30.73;;;9.10;92.90;;;;;;5115830;28;20185;-87
2024/02/21 03:24:16;;;;;;;43.00;32.20;;;9.10;93.00;;;;;;5116233;28;20544;-88
2024/02/21 03:26:42;;;;;;;38.33;26.60;;;9.10;93.20;;;;;;5115679;28;20733;-88
2024/02/21 03:29:08;;;;;;;49.13;32.53;;;9.00;93.40;;;;;;5115890;28;20274;-88
2024/02/21 03:31:34;;;;;;;39.67;30.60;;;9.00;93.60;;;;;;5115616;28;20174;-88
2024/02/21 03:34:00;;;;;;;40.60;30.43;;;9.00;93.80;;;;;;5115694;28;20178;-88
2024/02/21 03:36:26;;;;;;;56.47;33.13;;;8.90;93.90;;;;;;5116761;28;20593;-87
2024/02/21 03:38:51;;;;;;;42.30;29.80;;;8.90;93.90;;;;;;5115273;28;20200;-88
2024/02/21 03:41:17;;;;;;;34.10;27.40;;;8.90;94.00;;;;;;5117271;28;20178;-87
2024/02/21 03:43:42;;;;;;;40.67;30.03;;;8.90;94.00;;;;;;5115899;28;20206;-88
2024/02/21 03:46:08;;;;;;;41.80;31.50;;;8.90;94.00;;;;;;5115688;28;20246;-88
2024/02/21 03:48:34;;;;;;;45.47;30.93;;;8.90;94.10;;;;;;5116688;28;20251;-87
2024/02/21 03:50:59;;;;;;;46.43;30.13;;;8.90;94.30;;;;;;5116616;28;20282;-87
2024/02/21 03:53:25;;;;;;;44.03;32.43;;;8.80;94.30;;;;;;5115707;28;20178;-87
2024/02/21 03:55:51;;;;;;;41.90;30.33;;;8.80;94.50;;;;;;5116649;28;20174;-88
2024/02/21 03:58:16;;;;;;;43.30;32.43;;;8.80;94.60;;;;;;5116519;27;20190;-87
2024/02/21 04:00:42;;;;;;;42.97;30.07;;;8.80;94.70;;;;;;5116417;28;20172;-88
2024/02/21 04:03:07;;;;;;;44.93;31.63;;;8.80;94.90;;;;;;5115131;28;20197;-88
2024/02/21 04:05:33;;;;;;;37.70;30.53;;;8.80;94.90;;;;;;5114778;28;20202;-88
2024/02/21 04:07:58;;;;;;;41.33;30.83;;;8.80;95.00;;;;;;5116357;28;20194;-87
2024/02/21 04:10:24;;;;;;;40.13;29.60;;;8.80;95.00;;;;;;5116277;28;20171;-87
2024/02/21 04:12:50;;;;;;;38.97;30.67;;;8.80;95.10;;;;;;5116236;28;20231;-87
2024/02/21 04:15:16;;;;;;;36.97;28.33;;;8.80;95.20;;;;;;5114942;28;20177;-87
2024/02/21 04:17:42;;;;;;;40.73;29.80;;;8.80;95.20;;;;;;5116001;28;20760;-87
2024/02/21 04:20:14;;;;;;;36.90;30.07;;;8.70;95.20;;;;;;5116298;28;20198;-87
2024/02/21 04:22:40;;;;;;;40.83;25.90;;;8.70;95.30;;;;;;5116699;27;20256;-87
2024/02/21 04:25:06;;;;;;;34.87;23.87;;;8.70;95.40;;;;;;5114557;28;20178;-87
2024/02/21 04:27:31;;;;;;;39.70;26.93;;;8.70;95.50;;;;;;5115954;28;20640;-88
2024/02/21 04:29:57;;;;;;;34.00;22.47;;;8.70;95.50;;;;;;5115222;28;20226;-87
2024/02/21 04:32:23;;;;;;;42.40;24.90;;;8.70;95.50;;;;;;5114734;28;20166;-87
2024/02/21 04:34:48;;;;;;;34.73;23.73;;;8.70;95.60;;;;;;5115861;28;20166;-88
2024/02/21 04:37:14;;;;;;;30.57;18.60;;;8.70;95.60;;;;;;5116085;28;20641;-87
2024/02/21 04:39:40;;;;;;;39.27;24.23;;;8.70;95.70;;;;;;5116239;28;20190;-88
2024/02/21 04:42:05;;;;;;;27.53;21.80;;;8.70;95.70;;;;;;5114554;28;20219;-86
2024/02/21 04:44:31;;;;;;;32.67;21.83;;;8.70;95.80;;;;;;5114678;28;20611;-87
2024/02/21 04:46:56;;;;;;;29.83;21.53;;;8.70;95.80;;;;;;5115776;27;20578;-87
2024/02/21 04:49:22;;;;;;;33.80;23.67;;;8.70;95.80;;;;;;5114801;28;20189;-87
2024/02/21 04:51:47;;;;;;;28.07;21.03;;;8.70;95.90;;;;;;5115149;28;20195;-87
2024/02/21 04:54:13;;;;;;;29.87;19.33;;;8.60;95.90;;;;;;5115934;28;20170;-87
2024/02/21 04:56:38;;;;;;;27.97;19.93;;;8.60;96.00;;;;;;5114616;28;20182;-87
2024/02/21 04:59:04;;;;;;;25.97;17.97;;;8.60;96.10;;;;;;5114138;28;20194;-87
2024/02/21 05:01:29;;;;;;;21.80;17.00;;;8.60;96.00;;;;;;5114632;28;20552;-88
2024/02/21 05:03:56;;;;;;;28.53;19.80;;;8.60;96.10;;;;;;5115778;28;20193;-87
2024/02/21 05:06:22;;;;;;;25.23;19.57;;;8.60;96.20;;;;;;5116082;28;20205;-87
2024/02/21 05:08:47;;;;;;;24.73;18.90;;;8.60;96.20;;;;;;5114551;28;20194;-88
2024/02/21 05:11:13;;;;;;;27.73;18.30;;;8.60;96.30;;;;;;5114398;28;20174;-87
2024/02/21 05:13:38;;;;;;;27.97;20.20;;;8.60;96.30;;;;;;5115593;28;20227;-87
2024/02/21 05:16:05;;;;;;;27.57;21.17;;;8.60;96.30;;;;;;5115856;28;20183;-88
2024/02/21 05:18:30;;;;;;;21.67;19.33;;;8.60;96.30;;;;;;5114352;28;20198;-87
2024/02/21 05:20:56;;;;;;;23.23;20.00;;;8.60;96.40;;;;;;5115510;28;20185;-87
2024/02/21 05:23:21;;;;;;;29.63;20.13;;;8.60;96.40;;;;;;5114137;28;20184;-87
2024/02/21 05:25:47;;;;;;;26.33;19.53;;;8.60;96.40;;;;;;5116032;28;20221;-88
2024/02/21 05:28:12;;;;;;;23.87;19.63;;;8.60;96.50;;;;;;5114222;28;20544;-87
2024/02/21 05:30:38;;;;;;;23.70;19.43;;;8.60;96.50;;;;;;5114085;28;20203;-87
2024/02/21 05:33:05;;;;;;;26.10;21.47;;;8.50;96.50;;;;;;5115644;28;20226;-87
2024/02/21 05:35:30;;;;;;;24.07;20.60;;;8.50;96.50;;;;;;5114668;28;20174;-87
2024/02/21 05:37:56;;;;;;;25.87;19.30;;;8.60;96.50;;;;;;5115462;28;20258;-87
2024/02/21 05:40:21;;;;;;;22.67;19.70;;;8.60;96.50;;;;;;5115740;28;20177;-88
2024/02/21 05:42:47;;;;;;;25.23;19.27;;;8.60;96.60;;;;;;5115810;28;20177;-88
2024/02/21 05:45:13;;;;;;;18.23;16.10;;;8.50;96.60;;;;;;5114219;28;20185;-86
2024/02/21 05:47:38;;;;;;;21.67;19.37;;;8.50;96.60;;;;;;5115283;28;20196;-87
2024/02/21 05:50:05;;;;;;;23.63;17.93;;;8.50;96.60;;;;;;5115028;28;20634;-87
2024/02/21 05:52:30;;;;;;;24.77;18.57;;;8.50;96.70;;;;;;5115823;28;20170;-86
2024/02/21 05:54:56;;;;;;;21.60;16.67;;;8.50;96.70;;;;;;5115753;28;20181;-87
2024/02/21 05:57:21;;;;;;;19.87;16.40;;;8.50;96.70;;;;;;5115944;28;20775;-87
2024/02/21 05:59:47;;;;;;;23.07;17.93;;;8.50;96.70;;;;;;5114324;28;20264;-88
2024/02/21 06:02:12;;;;;;;19.50;16.37;;;8.50;96.70;;;;;;5114466;28;20182;-87
2024/02/21 06:04:39;;;;;;;18.07;16.27;;;8.50;96.70;;;;;;5115314;28;20193;-87
2024/02/21 06:07:04;;;;;;;17.97;15.60;;;8.50;96.80;;;;;;5114577;28;20197;-88
2024/02/21 06:09:30;;;;;;;16.47;14.33;;;8.50;96.80;;;;;;5114885;28;20196;-87
2024/02/21 06:11:56;;;;;;;18.73;16.00;;;8.50;96.80;;;;;;5114107;28;20245;-87
2024/02/21 06:14:21;;;;;;;16.90;15.10;;;8.50;96.80;;;;;;5114347;28;20182;-87
2024/02/21 06:16:47;;;;;;;18.57;15.83;;;8.50;96.80;;;;;;5115734;28;20185;-87
2024/02/21 06:19:12;;;;;;;17.73;15.33;;;8.50;96.90;;;;;;5113697;28;20262;-87
2024/02/21 06:21:38;;;;;;;18.63;16.67;;;8.50;96.90;;;;;;5114212;28;20210;-87
2024/02/21 06:24:04;;;;;;;19.87;15.27;;;8.50;96.90;;;;;;5114231;28;20205;-87
2024/02/21 06:26:29;;;;;;;18.53;16.70;;;8.50;96.90;;;;;;5115248;28;20699;-88
2024/02/21 06:28:55;;;;;;;18.50;15.77;;;8.50;97.00;;;;;;5115153;28;20197;-87
2024/02/21 06:31:20;;;;;;;18.43;16.20;;;8.50;97.00;;;;;;5114002;28;20659;-87
2024/02/21 06:33:46;;;;;;;18.70;16.73;;;8.50;97.00;;;;;;5115130;28;20162;-88
2024/02/21 06:36:11;;;;;;;21.63;17.03;;;8.50;97.00;;;;;;5114321;28;20174;-87
2024/02/21 06:38:37;;;;;;;19.80;16.87;;;8.50;97.00;;;;;;5114971;28;20266;-87
2024/02/21 06:41:02;;;;;;;22.93;17.77;;;8.50;97.00;;;;;;5114774;28;20174;-88
2024/02/21 06:43:28;;;;;;;20.80;16.80;;;8.50;97.00;;;;;;5113116;28;20181;-88
2024/02/21 06:45:55;;;;;;;17.13;15.30;;;8.50;97.00;;;;;;5114854;28;20267;-88
2024/02/21 06:48:20;;;;;;;18.33;16.33;;;8.50;97.00;;;;;;5113129;28;20205;-88
2024/02/21 06:50:46;;;;;;;20.23;16.20;;;8.50;97.00;;;;;;5113335;28;20174;-87
2024/02/21 06:53:12;;;;;;;25.03;16.87;;;8.50;97.00;;;;;;5113423;28;20257;-88
2024/02/21 06:55:38;;;;;;;16.83;14.53;;;8.50;97.00;;;;;;5113505;28;20283;-88
2024/02/21 06:58:03;;;;;;;25.30;16.07;;;8.60;97.00;;;;;;5112789;28;20233;-87
2024/02/21 07:00:29;;;;;;;22.60;15.07;;;8.50;97.00;;;;;;5114136;28;20185;-88
2024/02/21 07:02:55;;;;;;;18.67;14.63;;;8.40;97.00;;;;;;5113052;28;20186;-88
2024/02/21 07:05:21;;;;;;;25.03;15.23;;;8.50;97.00;;;;;;5112498;28;20351;-88
2024/02/21 07:07:46;;;;;;;23.97;13.77;;;8.40;96.90;;;;;;5114021;28;20198;-88
2024/02/21 07:10:12;;;;;;;24.97;13.13;;;8.40;96.90;;;;;;5113293;28;20232;-88
2024/02/21 07:12:43;;;;;;;22.63;13.70;;;8.40;96.90;;;;;;5114425;28;20181;-88
2024/02/21 07:15:08;;;;;;;35.00;13.97;;;8.40;96.90;;;;;;5116907;28;20185;-88
2024/02/21 07:17:34;;;;;;;25.80;12.87;;;8.40;96.80;;;;;;5116218;28;20182;-88
2024/02/21 07:20:01;;;;;;;37.00;14.53;;;8.40;96.80;;;;;;5117880;28;20227;-88
2024/02/21 07:22:26;;;;;;;35.90;14.70;;;8.30;96.70;;;;;;5116169;28;20593;-88
2024/02/21 07:24:52;;;;;;;35.27;14.10;;;8.40;96.70;;;;;;5118071;28;20170;-87
2024/02/21 07:27:17;;;;;;;33.67;14.47;;;8.40;96.60;;;;;;5117887;28;20569;-87
2024/02/21 07:29:47;;;;;;;24.03;13.93;;;8.40;96.60;;;;;;5116657;28;20601;-88
2024/02/21 07:32:12;;;;;;;32.93;15.13;;;8.40;96.60;;;;;;5117595;28;20166;-88
2024/02/21 07:34:38;;;;;;;23.43;13.50;;;8.40;96.50;;;;;;5117301;28;20177;-88
2024/02/21 07:37:03;;;;;;;34.53;15.47;;;8.40;96.40;;;;;;5115767;28;20185;-89
2024/02/21 07:39:29;;;;;;;25.30;13.43;;;8.30;96.20;;;;;;5116188;28;20224;-88
2024/02/21 07:41:54;;;;;;;29.93;14.50;;;8.30;96.20;;;;;;5117649;27;20209;-89
2024/02/21 07:44:20;;;;;;;32.90;14.63;;;8.40;96.10;;;;;;5115935;28;20174;-89
2024/02/21 07:46:45;;;;;;;33.30;13.67;;;8.40;96.00;;;;;;5116354;28;20292;-88
2024/02/21 07:49:11;;;;;;;22.70;14.30;;;8.30;95.90;;;;;;5118329;28;20217;-87
2024/02/21 07:51:36;;;;;;;30.50;15.00;;;8.40;95.90;;;;;;5117323;28;20170;-88
2024/02/21 07:54:04;;;;;;;46.93;19.03;;;8.40;95.80;;;;;;5116410;28;20196;-88
2024/02/21 07:56:29;;;;;;;31.53;15.10;;;8.40;95.50;;;;;;5116207;28;20178;-88
2024/02/21 07:58:55;;;;;;;30.40;15.23;;;8.40;95.40;;;;;;5115291;28;20274;-87
2024/02/21 08:01:20;;;;;;;39.93;16.77;;;8.40;95.30;;;;;;5115592;28;20177;-87
2024/02/21 08:03:46;;;;;;;27.90;16.23;;;8.50;95.20;;;;;;5114768;28;20174;-87
2024/02/21 08:06:15;;;;;;;36.17;15.67;;;8.40;94.90;;;;;;5116252;28;20224;-88
2024/02/21 08:08:41;;;;;;;26.80;14.53;;;8.50;94.80;;;;;;5114954;28;20257;-89
2024/02/21 08:11:06;;;;;;;25.23;14.70;;;8.60;94.90;;;;;;5114899;28;20202;-88
2024/02/21 08:13:32;;;;;;;27.47;10.70;;;8.60;94.80;;;;;;5114522;28;20246;-88
2024/02/21 08:15:57;;;;;;;29.80;10.97;;;8.50;94.60;;;;;;5114846;28;20174;-88
2024/02/21 08:18:23;;;;;;;26.80;11.40;;;8.60;94.50;;;;;;5114538;28;20197;-89
2024/02/21 08:20:49;;;;;;;25.30;11.37;;;8.50;94.40;;;;;;5114625;28;20566;-89
2024/02/21 08:23:19;;;;;;;21.80;11.50;;;8.60;94.40;;;;;;5114809;28;20186;-88
2024/02/21 08:25:44;;;;;;;27.97;11.17;;;8.60;94.20;;;;;;5115547;28;20224;-89
2024/02/21 08:28:10;;;;;;;28.43;12.10;;;8.70;94.20;;;;;;5115512;28;20661;-89
2024/02/21 08:30:36;;;;;;;30.63;11.33;;;8.70;94.10;;;;;;5114278;28;20174;-89
2024/02/21 08:33:01;;;;;;;24.43;11.50;;;8.70;94.20;;;;;;5114176;28;20170;-88
2024/02/21 08:35:27;;;;;;;21.87;10.43;;;8.70;94.00;;;;;;5114185;28;20554;-88
2024/02/21 08:37:52;;;;;;;29.83;11.03;;;8.70;94.10;;;;;;5113952;28;20688;-89
2024/02/21 08:40:20;;;;;;;27.23;11.43;;;8.70;94.10;;;;;;5115387;28;20600;-89
2024/02/21 08:42:46;;;;;;;28.07;11.17;;;8.70;94.00;;;;;;5114004;28;20181;-88
2024/02/21 08:45:12;;;;;;;22.43;10.63;;;8.70;94.00;;;;;;5113780;28;20178;-88
2024/02/21 08:47:40;;;;;;;28.30;11.30;;;8.70;93.90;;;;;;5115005;28;20277;-88
2024/02/21 08:50:07;;;;;;;27.57;11.27;;;8.70;93.70;;;;;;5115250;28;20173;-89
2024/02/21 08:52:33;;;;;;;36.50;12.00;;;8.70;93.60;;;;;;5114091;28;20166;-88
2024/02/21 08:54:58;;;;;;;25.37;10.43;;;8.70;93.60;;;;;;5113610;28;20322;-87
2024/02/21 08:57:24;;;;;;;26.20;10.07;;;8.70;93.70;;;;;;5113560;28;20181;-87
2024/02/21 08:59:49;;;;;;;21.73;9.30;;;8.80;93.80;;;;;;5115011;28;20654;-88
2024/02/21 09:02:18;;;;;;;25.17;10.77;;;8.80;93.90;;;;;;5113483;28;20180;-88
2024/02/21 09:04:44;;;;;;;40.37;10.60;;;8.90;94.00;;;;;;5113434;28;20174;-87
2024/02/21 09:07:10;;;;;;;22.27;10.83;;;8.80;94.00;;;;;;5115227;28;20717;-87
2024/02/21 09:09:35;;;;;;;35.53;12.07;;;8.90;94.10;;;;;;5113476;28;20563;-88
2024/02/21 09:12:05;;;;;;;23.33;11.53;;;8.80;94.00;;;;;;5115000;28;20192;-87
2024/02/21 09:14:31;;;;;;;26.77;10.87;;;8.90;94.10;;;;;;5113659;28;20645;-87
2024/02/21 09:16:57;;;;;;;20.87;12.03;;;8.90;94.10;;;;;;5114562;28;20166;-87
2024/02/21 09:19:22;;;;;;;25.23;16.17;;;8.90;94.00;;;;;;5114905;28;20251;-87
2024/02/21 09:21:48;;;;;;;31.23;16.03;;;8.90;94.10;;;;;;5113149;28;20201;-87
2024/02/21 09:24:14;;;;;;;25.67;16.37;;;8.80;93.80;;;;;;5114361;28;20200;-87
2024/02/21 09:26:40;;;;;;;24.90;15.60;;;8.80;94.00;;;;;;5114792;28;20252;-87
2024/02/21 09:29:05;;;;;;;31.93;15.97;;;8.70;94.00;;;;;;5113341;28;20201;-87
2024/02/21 09:31:31;;;;;;;27.60;15.17;;;8.70;94.00;;;;;;5113061;28;20174;-87
2024/02/21 09:33:56;;;;;;;28.23;15.73;;;8.70;94.10;;;;;;5114436;28;20249;-87
2024/02/21 09:36:23;;;;;;;25.27;12.57;;;8.70;94.20;;;;;;5113896;28;20180;-87
2024/02/21 09:38:48;;;;;;;26.10;14.47;;;8.70;94.40;;;;;;5114177;28;20194;-87
2024/02/21 09:41:18;;;;;;;32.60;14.27;;;8.70;94.60;;;;;;5114366;28;20181;-87
2024/02/21 09:43:47;;;;;;;25.17;13.63;;;8.60;94.70;;;;;;5114124;28;20170;-89
2024/02/21 09:46:21;;;;;;;25.77;15.10;;;8.60;94.80;;;;;;5114516;28;20284;-87
2024/02/21 09:49:04;;;;;;;33.03;14.67;;;8.60;94.90;;;;;;5112744;28;20190;-87
2024/02/21 09:51:32;;;;;;;21.60;13.33;;;8.60;95.10;;;;;;5112984;28;20177;-87
2024/02/21 09:53:59;;;;;;;24.23;14.97;;;8.60;95.30;;;;;;5112704;28;20178;-87
2024/02/21 09:56:24;;;;;;;25.37;12.47;;;8.70;95.40;;;;;;5114049;28;20170;-88
2024/02/21 09:58:50;;;;;;;18.97;11.67;;;8.70;95.50;;;;;;5114216;28;20243;-88
2024/02/21 10:01:16;;;;;;;19.20;10.93;;;8.70;95.60;;;;;;5112625;28;20550;-87
2024/02/21 10:03:43;;;;;;;17.53;11.27;;;8.70;95.60;;;;;;5113921;28;20235;-87
2024/02/21 10:06:09;;;;;;;18.73;10.83;;;8.80;95.70;;;;;;5112292;28;20213;-88
2024/02/21 10:08:34;;;;;;;11.90;10.70;;;8.70;95.80;;;;;;5112634;28;20194;-88
2024/02/21 10:11:01;;;;;;;18.37;11.70;;;8.80;95.90;;;;;;5113787;28;20633;-88
2024/02/21 10:13:28;;;;;;;17.20;11.80;;;8.70;96.00;;;;;;5112638;28;20181;-87
2024/02/21 10:16:07;;;;;;;22.20;11.67;;;8.80;96.10;;;;;;5113753;28;20645;-87
2024/02/21 10:18:36;;;;;;;17.40;11.00;;;8.80;96.20;;;;;;5113736;28;20562;-88
2024/02/21 10:21:10;;;;;;;16.07;9.27;;;8.90;96.30;;;;;;5113651;28;20173;-87
2024/02/21 10:23:46;;;;;;;11.10;8.97;;;8.90;96.30;;;;;;5113599;28;20592;-87
2024/02/21 10:26:13;;;;;;;11.20;7.80;;;8.90;96.40;;;;;;5112504;28;20204;-87
2024/02/21 10:28:44;;;;;;;10.53;8.10;;;8.90;96.40;;;;;;5112628;28;20189;-87
2024/02/21 10:31:23;;;;;;;9.57;8.63;;;9.00;96.40;;;;;;5113647;28;20568;-87
2024/02/21 10:34:02;;;;;;;11.73;10.10;;;9.00;96.30;;;;;;5112538;28;20177;-87
2024/02/21 10:36:28;;;;;;;14.13;10.27;;;9.10;96.30;;;;;;5113813;28;20161;-88
2024/02/21 10:38:54;;;;;;;14.70;12.10;;;9.00;96.30;;;;;;5112273;28;20193;-87
2024/02/21 10:41:21;;;;;;;23.90;13.17;;;9.00;96.10;;;;;;5113550;28;20180;-87
2024/02/21 10:43:51;;;;;;;18.47;13.77;;;9.10;96.00;;;;;;5112274;28;20281;-87
2024/02/21 10:46:19;;;;;;;26.87;16.70;;;9.10;95.80;;;;;;5113990;28;20599;-87
2024/02/21 10:48:47;;;;;;;21.20;16.80;;;9.20;95.80;;;;;;5115846;28;20194;-87
2024/02/21 10:51:17;;;;;;;25.33;17.30;;;9.20;95.60;;;;;;5116141;28;20235;-87
2024/02/21 10:54:07;;;;;;;19.77;17.33;;;9.10;95.40;;;;;;5116073;28;20249;-87
2024/02/21 10:56:36;;;;;;;24.83;18.20;;;9.10;95.30;;;;;;5116050;28;20178;-88
2024/02/21 10:59:03;;;;;;;24.00;18.03;;;9.20;95.20;;;;;;5117145;28;20606;-87
2024/02/21 11:01:31;;;;;;;26.73;19.10;;;9.20;95.10;;;;;;5115886;28;20720;-87
2024/02/21 11:03:58;;;;;;;32.57;19.40;;;9.10;95.00;;;;;;5115987;28;20166;-87
2024/02/21 11:06:26;;;;;;;24.57;17.77;;;9.20;94.90;;;;;;5115908;28;20578;-88
2024/02/21 11:09:04;;;;;;;24.53;18.17;;;9.20;94.90;;;;;;5115689;28;20707;-87
2024/02/21 11:11:34;;;;;;;29.20;21.17;;;9.20;94.90;;;;;;5117083;28;20170;-87
2024/02/21 11:14:20;;;;;;;29.20;21.83;;;9.20;94.80;;;;;;5117015;27;20563;-87
2024/02/21 11:16:46;;;;;;;31.03;18.17;;;9.20;94.60;;;;;;5117251;28;20591;-87
2024/02/21 11:19:23;;;;;;;35.83;25.90;;;9.20;94.60;;;;;;5116771;28;20264;-88
2024/02/21 11:21:49;;;;;;;37.97;25.30;;;9.20;94.50;;;;;;5115635;28;20618;-87
2024/02/21 11:24:32;;;;;;;37.63;27.40;;;9.10;94.30;;;;;;5115448;28;20265;-87
2024/02/21 11:27:20;;;;;;;37.60;25.67;;;9.20;94.20;;;;;;5116698;27;20224;-87
2024/02/21 11:29:53;;;;;;;30.57;25.77;;;9.10;94.30;;;;;;5116604;28;20219;-88
2024/02/21 11:32:20;;;;;;;39.97;27.53;;;9.10;94.40;;;;;;5115380;28;20177;-87
2024/02/21 11:35:03;;;;;;;35.23;25.30;;;9.10;94.40;;;;;;5115207;28;20178;-87
2024/02/21 11:37:33;;;;;;;30.63;25.93;;;9.10;94.50;;;;;;5116327;28;20261;-88
2024/02/21 11:40:00;;;;;;;32.47;23.40;;;9.10;94.50;;;;;;5116917;28;20170;-87
2024/02/21 11:42:29;;;;;;;35.27;26.97;;;9.10;94.30;;;;;;5116459;28;20174;-88
2024/02/21 11:44:59;;;;;;;29.43;23.03;;;9.10;94.20;;;;;;5115291;28;20178;-87
2024/02/21 11:47:25;;;;;;;23.50;18.23;;;9.10;94.00;;;;;;5116069;28;20233;-87
2024/02/21 11:49:53;;;;;;;27.00;22.40;;;9.10;93.80;;;;;;5117166;28;20166;-87
2024/02/21 11:52:22;;;;;;;23.63;18.73;;;9.10;93.70;;;;;;5116330;28;20166;-87
2024/02/21 11:54:48;;;;;;;31.53;21.57;;;9.10;93.50;;;;;;5116337;28;20162;-87
2024/02/21 11:57:14;;;;;;;28.23;21.63;;;9.10;93.60;;;;;;5116352;28;20177;-87
2024/02/21 11:59:40;;;;;;;34.83;22.97;;;9.10;93.80;;;;;;5115701;28;20190;-87
2024/02/21 12:02:07;;;;;;;32.27;23.00;;;9.10;93.90;;;;;;5114931;28;20181;-88
2024/02/21 12:04:32;;;;;;;31.40;25.40;;;9.00;94.10;;;;;;5115867;28;20176;-87
2024/02/21 12:06:58;;;;;;;28.20;25.13;;;9.00;94.00;;;;;;5114786;28;20292;-87
2024/02/21 12:09:25;;;;;;;36.57;25.90;;;8.90;93.90;;;;;;5114743;28;20729;-87
2024/02/21 12:12:03;;;;;;;34.53;26.60;;;9.00;93.80;;;;;;5114724;28;20170;-87
2024/02/21 12:14:30;;;;;;;38.63;27.90;;;9.00;93.90;;;;;;5115868;28;20625;-88
2024/02/21 12:16:56;;;;;;;33.63;25.23;;;9.00;93.80;;;;;;5116048;28;20222;-86
2024/02/21 12:19:21;;;;;;;30.10;25.73;;;9.00;93.80;;;;;;5114394;28;20201;-87
2024/02/21 12:21:49;;;;;;;31.00;26.50;;;8.90;93.40;;;;;;5115772;28;20196;-87
2024/02/21 12:24:25;;;;;;;30.30;26.90;;;8.90;93.50;;;;;;5115593;28;20216;-87
2024/02/21 12:26:54;;;;;;;32.90;25.43;;;8.90;93.30;;;;;;5114421;28;20197;-87
2024/02/21 12:29:20;;;;;;;33.80;26.33;;;8.90;93.20;;;;;;5115442;28;20162;-87
2024/02/21 12:31:46;;;;;;;32.23;28.83;;;9.00;92.90;;;;;;5114727;28;20219;-87
2024/02/21 12:34:11;;;;;;;31.80;28.00;;;8.90;92.80;;;;;;5115550;28;20174;-87
2024/02/21 12:36:44;;;;;;;35.73;28.60;;;9.00;93.00;;;;;;5114315;28;20193;-87